createdAt,value
2022-12-07T00:01:26.157Z,11.15
2022-12-07T00:03:54.840Z,13.32
2022-12-07T00:06:21.420Z,10.73
2022-12-07T00:08:48.962Z,13.13
2022-12-07T00:11:22.176Z,12.95
2022-12-07T00:13:52.895Z,14.52
2022-12-07T00:16:21.528Z,10.18
2022-12-07T00:18:48.130Z,12.60
2022-12-07T00:21:20.494Z,13.48
2022-12-07T00:23:49.396Z,10.55
2022-12-07T00:26:19.393Z,11.70
2022-12-07T00:28:47.863Z,10.88
2022-12-07T00:31:15.346Z,16.07
2022-12-07T00:33:42.340Z,14.15
2022-12-07T00:36:15.059Z,15.05
2022-12-07T00:38:42.120Z,13.63
2022-12-07T00:41:14.150Z,18.05
2022-12-07T00:43:42.525Z,13.90
2022-12-07T00:46:09.141Z,13.02
2022-12-07T00:48:36.027Z,16.23
2022-12-07T00:51:02.874Z,14.38
2022-12-07T00:53:29.465Z,17.88
2022-12-07T00:55:56.301Z,15.70
2022-12-07T00:58:24.206Z,16.92
2022-12-07T01:00:51.682Z,17.73
2022-12-07T01:03:18.384Z,15.27
2022-12-07T01:05:53.839Z,15.60
2022-12-07T01:08:21.107Z,14.50
2022-12-07T01:10:47.738Z,18.42
2022-12-07T01:13:14.592Z,14.90
2022-12-07T01:15:45.603Z,15.07
2022-12-07T01:18:12.247Z,13.63
2022-12-07T01:20:38.812Z,16.50
2022-12-07T01:23:05.299Z,16.05
2022-12-07T01:25:31.781Z,16.10
2022-12-07T01:27:58.276Z,17.00
2022-12-07T01:30:24.928Z,14.93
2022-12-07T01:32:51.429Z,11.70
2022-12-07T01:35:17.831Z,14.77
2022-12-07T01:37:44.302Z,14.10
2022-12-07T01:40:11.780Z,16.17
2022-12-07T01:42:38.239Z,14.50
2022-12-07T01:45:19.853Z,12.60
2022-12-07T01:47:54.751Z,10.85
2022-12-07T01:50:24.935Z,14.88
2022-12-07T01:52:53.735Z,17.55
2022-12-07T01:55:20.684Z,16.40
2022-12-07T01:57:51.603Z,14.93
2022-12-07T02:00:19.121Z,15.18
2022-12-07T02:02:54.474Z,17.73
2022-12-07T02:05:21.749Z,15.15
2022-12-07T02:07:55.347Z,17.40
2022-12-07T02:10:25.384Z,18.37
2022-12-07T02:13:03.389Z,17.25
2022-12-07T02:15:43.272Z,17.63
2022-12-07T02:18:34.027Z,18.33
2022-12-07T02:21:10.831Z,15.63
2022-12-07T02:23:59.764Z,14.03
2022-12-07T02:27:03.917Z,16.58
2022-12-07T02:29:36.399Z,17.08
2022-12-07T02:32:52.673Z,18.70
2022-12-07T02:35:39.610Z,18.95
2022-12-07T02:38:14.851Z,21.27
2022-12-07T02:40:51.061Z,20.33
2022-12-07T02:43:43.335Z,20.77
2022-12-07T02:46:18.488Z,20.02
2022-12-07T02:48:47.425Z,20.83
2022-12-07T02:51:14.123Z,18.87
2022-12-07T02:53:49.451Z,21.75
2022-12-07T02:59:46.009Z,17.23
2022-12-07T03:02:38.081Z,20.30
2022-12-07T03:05:44.692Z,21.50
2022-12-07T03:08:37.292Z,16.08
2022-12-07T03:11:24.267Z,23.27
2022-12-07T03:14:02.052Z,24.55
2022-12-07T03:16:47.609Z,24.00
2022-12-07T03:19:18.863Z,19.27
2022-12-07T03:21:51.057Z,23.15
2022-12-07T03:24:22.061Z,19.88
2022-12-07T03:26:55.238Z,24.52
2022-12-07T03:29:44.943Z,21.27
2022-12-07T03:32:22.805Z,15.77
2022-12-07T03:34:57.184Z,23.75
2022-12-07T03:37:41.211Z,19.50
2022-12-07T03:40:07.722Z,22.63
2022-12-07T03:42:34.809Z,17.58
2022-12-07T03:45:05.167Z,21.53
2022-12-07T03:47:41.650Z,18.63
2022-12-07T03:50:40.188Z,21.33
2022-12-07T03:53:21.199Z,20.65
2022-12-07T03:55:50.355Z,21.52
2022-12-07T03:58:21.544Z,24.20
2022-12-07T04:00:49.896Z,20.63
2022-12-07T04:03:16.583Z,16.73
2022-12-07T04:05:44.012Z,21.13
2022-12-07T04:08:10.965Z,20.45
2022-12-07T04:10:37.547Z,17.50
2022-12-07T04:13:03.961Z,24.25
2022-12-07T04:15:30.443Z,22.95
2022-12-07T04:18:00.645Z,21.88
2022-12-07T04:20:30.393Z,23.13
2022-12-07T04:22:57.922Z,20.23
2022-12-07T04:25:25.157Z,19.40
2022-12-07T04:27:52.024Z,23.80
2022-12-07T04:30:18.510Z,19.33
2022-12-07T04:32:45.774Z,25.42
2022-12-07T04:35:12.301Z,26.97
2022-12-07T04:37:38.840Z,24.23
2022-12-07T04:40:06.604Z,27.02
2022-12-07T04:42:33.032Z,21.52
2022-12-07T04:44:59.985Z,20.48
2022-12-07T04:47:29.922Z,20.20
2022-12-07T04:49:59.574Z,24.30
2022-12-07T04:52:29.263Z,21.75
2022-12-07T04:54:59.819Z,26.90
2022-12-07T04:57:29.627Z,25.48
2022-12-07T04:59:59.222Z,24.83
2022-12-07T05:02:34.890Z,23.10
2022-12-07T05:05:01.485Z,23.02
2022-12-07T05:07:31.214Z,21.98
2022-12-07T05:09:57.666Z,27.17
2022-12-07T05:12:24.122Z,26.87
2022-12-07T05:14:50.595Z,30.48
2022-12-07T05:17:17.018Z,29.92
2022-12-07T05:19:43.464Z,27.70
2022-12-07T05:22:09.918Z,28.35
2022-12-07T05:24:36.332Z,33.30
2022-12-07T05:27:03.288Z,30.35
2022-12-07T05:29:30.039Z,28.10
2022-12-07T05:31:57.884Z,35.90
2022-12-07T05:34:24.437Z,37.60
2022-12-07T05:36:51.054Z,34.10
2022-12-07T05:39:17.647Z,63.13
2022-12-07T05:41:44.363Z,44.25
2022-12-07T05:44:10.843Z,37.53
2022-12-07T05:46:37.340Z,30.40
2022-12-07T05:49:03.785Z,27.93
2022-12-07T05:51:30.553Z,25.85
2022-12-07T05:53:59.839Z,26.48
2022-12-07T05:56:34.074Z,22.05
2022-12-07T05:59:00.616Z,24.77
2022-12-07T06:01:36.450Z,24.97
2022-12-07T06:04:02.965Z,22.48
2022-12-07T06:06:29.911Z,20.83
2022-12-07T06:09:00.105Z,20.02
2022-12-07T06:11:29.149Z,24.75
2022-12-07T06:13:59.886Z,25.83
2022-12-07T06:16:29.609Z,25.15
2022-12-07T06:19:02.082Z,28.17
2022-12-07T06:21:29.229Z,27.05
2022-12-07T06:23:56.357Z,29.88
2022-12-07T06:26:22.811Z,29.07
2022-12-07T06:28:49.310Z,25.40
2022-12-07T06:31:16.034Z,28.35
2022-12-07T06:33:43.610Z,20.67
2022-12-07T06:36:10.870Z,22.70
2022-12-07T06:38:37.590Z,20.53
2022-12-07T06:41:04.970Z,23.13
2022-12-07T06:43:31.383Z,20.25
2022-12-07T06:45:58.101Z,25.63
2022-12-07T06:48:24.826Z,20.52
2022-12-07T06:50:54.982Z,19.47
2022-12-07T06:53:23.001Z,21.95
2022-12-07T06:55:49.834Z,19.08
2022-12-07T06:58:17.563Z,20.65
2022-12-07T07:00:44.824Z,25.63
2022-12-07T07:03:11.448Z,19.77
2022-12-07T07:05:37.999Z,23.02
2022-12-07T07:08:21.872Z,21.77
2022-12-07T07:10:49.225Z,22.20
2022-12-07T07:13:15.837Z,18.55
2022-12-07T07:15:42.377Z,20.33
2022-12-07T07:18:09.163Z,20.75
2022-12-07T07:20:36.042Z,18.30
2022-12-07T07:23:02.529Z,13.90
2022-12-07T07:25:29.273Z,15.68
2022-12-07T07:27:56.391Z,16.53
2022-12-07T07:30:22.848Z,15.88
2022-12-07T07:32:49.486Z,20.35
2022-12-07T07:35:16.152Z,18.23
2022-12-07T07:37:43.162Z,19.65
2022-12-07T07:40:10.972Z,19.47
2022-12-07T07:42:37.446Z,18.27
2022-12-07T07:45:04.452Z,21.10
2022-12-07T07:47:30.897Z,19.90
2022-12-07T07:50:00.930Z,18.73
2022-12-07T07:52:27.791Z,18.50
2022-12-07T07:54:57.980Z,17.10
2022-12-07T07:57:24.613Z,18.25
2022-12-07T07:59:51.230Z,19.65
2022-12-07T08:02:19.765Z,15.38
2022-12-07T08:04:47.229Z,15.17
2022-12-07T08:07:15.065Z,15.88
2022-12-07T08:09:42.020Z,19.23
2022-12-07T08:12:08.811Z,18.10
2022-12-07T08:14:35.580Z,17.95
2022-12-07T08:17:02.176Z,18.93
2022-12-07T08:19:28.964Z,12.93
2022-12-07T08:21:55.876Z,16.65
2022-12-07T08:24:22.944Z,18.33
2022-12-07T08:26:49.431Z,17.85
2022-12-07T08:29:24.941Z,20.27
2022-12-07T08:31:54.446Z,17.63
2022-12-07T08:34:24.014Z,16.45
2022-12-07T08:36:53.959Z,15.60
2022-12-07T08:39:31.329Z,16.52
2022-12-07T08:42:01.860Z,15.23
2022-12-07T08:44:28.734Z,19.02
2022-12-07T08:47:00.464Z,15.93
2022-12-07T08:49:44.935Z,17.45
2022-12-07T08:52:12.376Z,18.83
2022-12-07T08:54:40.870Z,31.23
2022-12-07T08:57:07.990Z,24.67
2022-12-07T08:59:37.283Z,18.88
2022-12-07T09:02:05.567Z,16.50
2022-12-07T09:04:32.306Z,13.43
2022-12-07T09:07:00.124Z,14.27
2022-12-07T09:09:26.670Z,12.10
2022-12-07T09:11:53.262Z,11.50
2022-12-07T09:14:19.837Z,8.73
2022-12-07T09:16:46.370Z,10.07
2022-12-07T09:19:13.761Z,11.73
2022-12-07T09:21:40.691Z,11.48
2022-12-07T09:24:07.563Z,10.50
2022-12-07T09:26:34.387Z,10.88
2022-12-07T09:29:00.837Z,10.88
2022-12-07T09:31:27.435Z,10.73
2022-12-07T09:33:59.130Z,10.70
2022-12-07T09:36:26.693Z,12.40
2022-12-07T09:38:53.440Z,10.18
2022-12-07T09:41:21.331Z,10.68
2022-12-07T09:43:48.250Z,11.27
2022-12-07T09:46:18.869Z,12.32
2022-12-07T09:48:47.781Z,10.98
2022-12-07T09:51:25.410Z,16.00
2022-12-07T09:53:59.384Z,15.20
2022-12-07T09:56:26.974Z,15.80
2022-12-07T09:59:06.621Z,13.52
2022-12-07T10:01:34.765Z,18.60
2022-12-07T10:04:14.458Z,20.73
2022-12-07T10:06:41.780Z,18.65
2022-12-07T10:09:16.774Z,11.23
2022-12-07T10:12:08.231Z,10.65
2022-12-07T10:15:06.172Z,11.73
2022-12-07T10:17:38.473Z,12.93
2022-12-07T10:20:20.503Z,9.38
2022-12-07T10:22:59.104Z,9.03
2022-12-07T10:25:32.279Z,9.77
2022-12-07T10:28:02.681Z,8.43
2022-12-07T10:30:31.358Z,10.30
2022-12-07T10:32:58.192Z,8.70
2022-12-07T10:35:26.768Z,9.70
2022-12-07T10:37:55.252Z,10.18
2022-12-07T10:40:37.010Z,8.30
2022-12-07T10:43:22.530Z,11.85
2022-12-07T10:46:03.386Z,8.95
2022-12-07T10:48:40.775Z,11.23
2022-12-07T10:51:24.297Z,9.73
2022-12-07T10:53:59.666Z,8.15
2022-12-07T10:56:51.128Z,8.98
2022-12-07T10:59:48.252Z,8.00
2022-12-07T11:02:26.526Z,8.57
2022-12-07T11:05:29.369Z,7.30
2022-12-07T11:08:30.635Z,9.10
2022-12-07T11:11:00.832Z,8.02
2022-12-07T11:13:36.472Z,8.15
2022-12-07T11:16:21.217Z,8.47
2022-12-07T11:19:07.417Z,10.05
2022-12-07T11:21:49.857Z,9.82
2022-12-07T11:24:24.974Z,16.25
2022-12-07T11:26:57.622Z,13.90
2022-12-07T11:30:09.280Z,8.73
2022-12-07T11:32:47.926Z,9.68
2022-12-07T11:35:33.709Z,8.48
2022-12-07T11:38:12.482Z,9.30
2022-12-07T11:40:41.540Z,8.32
2022-12-07T11:43:19.053Z,7.17
2022-12-07T11:45:52.314Z,9.00
2022-12-07T11:48:25.502Z,7.88
2022-12-07T11:51:01.263Z,7.63
2022-12-07T11:53:38.581Z,7.38
2022-12-07T11:56:13.891Z,8.20
2022-12-07T11:58:49.477Z,7.03
2022-12-07T12:01:40.127Z,8.20
2022-12-07T12:04:12.708Z,8.80
2022-12-07T12:06:41.399Z,7.97
2022-12-07T12:15:52.958Z,5.40
2022-12-07T12:18:42.328Z,8.05
2022-12-07T12:21:15.145Z,9.52
2022-12-07T12:23:47.606Z,7.27
2022-12-07T12:26:34.349Z,6.03
2022-12-07T12:29:04.577Z,7.90
2022-12-07T12:31:37.824Z,9.13
2022-12-07T12:34:25.926Z,8.73
2022-12-07T12:36:52.588Z,8.33
2022-12-07T12:39:20.067Z,11.55
2022-12-07T12:41:46.860Z,8.70
2022-12-07T12:44:16.226Z,7.45
2022-12-07T12:46:55.906Z,8.52
2022-12-07T12:49:22.382Z,9.17
2022-12-07T12:51:59.847Z,8.57
2022-12-07T12:54:35.902Z,8.48
2022-12-07T12:57:19.512Z,7.80
2022-12-07T12:59:52.214Z,6.25
2022-12-07T13:02:24.135Z,9.13
2022-12-07T13:05:10.900Z,6.95
2022-12-07T13:07:46.631Z,6.63
2022-12-07T13:10:41.145Z,8.52
2022-12-07T13:13:13.843Z,10.73
2022-12-07T13:15:52.316Z,7.63
2022-12-07T13:18:26.878Z,8.90
2022-12-07T13:21:09.030Z,8.02
2022-12-07T13:23:47.146Z,7.30
2022-12-07T13:26:31.364Z,7.10
2022-12-07T13:29:21.175Z,8.73
2022-12-07T13:31:58.468Z,6.85
2022-12-07T13:34:39.291Z,5.25
2022-12-07T13:37:16.410Z,8.85
2022-12-07T13:39:52.687Z,6.72
2022-12-07T13:42:33.230Z,5.17
2022-12-07T13:45:07.338Z,8.38
2022-12-07T13:47:46.168Z,7.57
2022-12-07T13:50:42.010Z,13.02
2022-12-07T13:53:14.296Z,12.65
2022-12-07T13:55:53.776Z,11.27
2022-12-07T13:58:21.307Z,6.28
2022-12-07T14:00:53.517Z,7.57
2022-12-07T14:03:26.292Z,9.30
2022-12-07T14:06:27.242Z,10.77
2022-12-07T14:09:17.704Z,5.17
2022-12-07T14:11:45.631Z,6.43
2022-12-07T14:14:17.709Z,10.65
2022-12-07T14:16:44.603Z,7.75
2022-12-07T14:19:47.670Z,7.55
2022-12-07T14:22:27.375Z,6.13
2022-12-07T14:25:20.415Z,7.68
2022-12-07T14:28:05.684Z,8.55
2022-12-07T14:30:35.061Z,12.05
2022-12-07T14:33:06.121Z,11.30
2022-12-07T14:35:33.440Z,11.60
2022-12-07T14:38:00.219Z,7.75
2022-12-07T14:40:29.846Z,8.00
2022-12-07T14:43:09.009Z,9.85
2022-12-07T14:45:35.620Z,9.95
2022-12-07T14:53:49.929Z,8.85
2022-12-07T14:56:19.854Z,7.50
2022-12-07T14:58:46.441Z,9.05
2022-12-07T15:01:12.865Z,11.70
2022-12-07T15:03:39.481Z,8.95
2022-12-07T15:06:07.813Z,8.57
2022-12-07T15:08:38.097Z,12.15
2022-12-07T15:11:04.943Z,10.45
2022-12-07T15:13:31.522Z,7.90
2022-12-07T15:15:58.035Z,9.43
2022-12-07T15:18:25.307Z,8.00
2022-12-07T15:20:51.838Z,9.10
2022-12-07T15:23:18.745Z,8.95
2022-12-07T15:25:53.478Z,11.37
2022-12-07T15:28:23.026Z,7.72
2022-12-07T15:30:50.625Z,7.40
2022-12-07T15:33:17.182Z,10.07
2022-12-07T15:35:45.700Z,7.55
2022-12-07T15:38:12.776Z,8.03
2022-12-07T15:40:39.366Z,9.18
2022-12-07T15:43:05.907Z,13.23
2022-12-07T15:45:35.717Z,10.93
2022-12-07T15:48:27.417Z,9.20
2022-12-07T15:50:50.437Z,8.93
2022-12-07T15:53:18.077Z,9.20
2022-12-07T15:55:44.667Z,10.10
2022-12-07T15:58:11.242Z,13.90
2022-12-07T16:00:37.881Z,12.10
2022-12-07T16:03:05.287Z,17.00
2022-12-07T16:05:32.054Z,13.85
2022-12-07T16:07:58.679Z,10.57
2022-12-07T16:10:35.598Z,8.98
2022-12-07T16:13:02.435Z,9.82
2022-12-07T16:15:28.937Z,11.23
2022-12-07T16:17:55.375Z,14.45
2022-12-07T16:20:22.025Z,13.07
2022-12-07T16:22:52.794Z,10.20
2022-12-07T16:25:19.294Z,17.55
2022-12-07T16:27:45.812Z,13.13
2022-12-07T16:30:16.191Z,10.98
2022-12-07T16:32:43.514Z,10.50
2022-12-07T16:35:11.489Z,17.65
2022-12-07T16:37:45.091Z,17.55
2022-12-07T16:40:12.248Z,17.13
2022-12-07T16:42:38.823Z,21.55
2022-12-07T16:45:06.631Z,20.42
2022-12-07T16:47:34.003Z,17.13
2022-12-07T16:50:00.553Z,17.85
2022-12-07T16:52:27.331Z,19.77
2022-12-07T16:54:56.686Z,19.20
2022-12-07T16:57:24.223Z,24.42
2022-12-07T16:59:52.417Z,26.65
2022-12-07T17:02:19.103Z,23.95
2022-12-07T17:04:45.752Z,18.23
2022-12-07T17:07:12.890Z,18.35
2022-12-07T17:09:39.622Z,14.40
2022-12-07T17:12:06.804Z,18.85
2022-12-07T17:14:34.760Z,13.82
2022-12-07T17:17:02.563Z,11.93
2022-12-07T17:19:29.223Z,9.70
2022-12-07T17:21:55.760Z,9.25
2022-12-07T17:24:22.315Z,6.53
2022-12-07T17:26:50.182Z,10.73
2022-12-07T17:29:18.565Z,11.97
2022-12-07T17:31:51.419Z,10.13
2022-12-07T17:34:19.861Z,11.77
2022-12-07T17:36:46.584Z,10.80
2022-12-07T17:39:16.922Z,10.40
2022-12-07T17:41:43.561Z,10.03
2022-12-07T17:44:12.723Z,14.93
2022-12-07T17:46:40.076Z,12.85
2022-12-07T17:49:08.055Z,11.52
2022-12-07T17:51:35.600Z,13.43
2022-12-07T17:54:02.691Z,10.97
2022-12-07T17:56:29.640Z,13.73
2022-12-07T17:58:56.250Z,10.48
2022-12-07T18:01:24.351Z,11.93
2022-12-07T18:03:51.420Z,11.75
2022-12-07T18:06:18.003Z,14.47
2022-12-07T18:08:48.047Z,16.20
2022-12-07T18:11:14.601Z,15.93
2022-12-07T18:13:41.243Z,13.20
2022-12-07T18:16:14.909Z,15.48
2022-12-07T18:18:41.613Z,15.77
2022-12-07T18:21:11.781Z,15.63
2022-12-07T18:23:38.312Z,14.52
2022-12-07T18:26:04.984Z,13.30
2022-12-07T18:28:32.343Z,13.07
2022-12-07T18:31:15.016Z,12.33
2022-12-07T18:33:43.352Z,13.48
2022-12-07T18:36:11.018Z,16.35
2022-12-07T18:38:38.865Z,15.75
2022-12-07T18:41:08.846Z,13.38
2022-12-07T18:43:35.487Z,12.83
2022-12-07T18:46:02.319Z,14.55
2022-12-07T18:48:29.937Z,18.60
2022-12-07T18:51:04.481Z,12.20
2022-12-07T18:53:35.770Z,15.45
2022-12-07T18:56:27.539Z,15.43
2022-12-07T18:58:59.337Z,14.77
2022-12-07T19:01:26.223Z,14.77
2022-12-07T19:03:52.724Z,11.57
2022-12-07T19:06:19.226Z,14.57
2022-12-07T19:08:45.850Z,15.67
2022-12-07T19:11:23.734Z,16.15
2022-12-07T19:13:50.936Z,14.77
2022-12-07T19:16:17.563Z,14.63
2022-12-07T19:18:51.273Z,12.65
2022-12-07T19:21:19.090Z,14.90
2022-12-07T19:23:45.674Z,16.33
2022-12-07T19:26:12.301Z,18.05
2022-12-07T19:28:38.780Z,20.02
2022-12-07T19:31:09.869Z,16.80
2022-12-07T19:33:36.899Z,17.23
2022-12-07T19:36:03.989Z,12.00
2022-12-07T19:38:32.448Z,10.85
2022-12-07T19:41:06.127Z,25.60
2022-12-07T19:43:34.295Z,20.00
2022-12-07T19:46:06.502Z,16.50
2022-12-07T19:48:33.437Z,12.57
2022-12-07T19:51:05.192Z,12.98
2022-12-07T19:53:33.324Z,15.65
2022-12-07T19:55:59.791Z,22.52
2022-12-07T19:58:26.418Z,21.40
2022-12-07T20:00:53.093Z,23.08
2022-12-07T20:03:20.253Z,24.48
2022-12-07T20:05:46.969Z,23.02
2022-12-07T20:08:13.550Z,22.17
2022-12-07T20:10:41.061Z,24.23
2022-12-07T20:13:10.995Z,17.40
2022-12-07T20:15:38.439Z,21.98
2022-12-07T20:18:05.029Z,16.58
2022-12-07T20:20:31.660Z,17.63
2022-12-07T20:22:58.138Z,17.23
2022-12-07T20:25:24.605Z,16.00
2022-12-07T20:27:51.131Z,20.00
2022-12-07T20:30:17.845Z,27.30
2022-12-07T20:32:44.514Z,16.77
2022-12-07T20:35:11.061Z,17.10
2022-12-07T20:37:37.543Z,17.70
2022-12-07T20:40:05.025Z,27.02
2022-12-07T20:42:31.759Z,16.38
2022-12-07T20:45:02.665Z,15.98
2022-12-07T20:47:30.275Z,19.07
2022-12-07T20:49:56.756Z,22.63
2022-12-07T20:52:23.409Z,23.42
2022-12-07T20:54:49.974Z,32.97
2022-12-07T20:57:16.589Z,65.60
2022-12-07T20:59:43.265Z,43.97
2022-12-07T21:02:12.715Z,51.95
2022-12-07T21:04:40.547Z,22.85
2022-12-07T21:07:07.737Z,28.23
2022-12-07T21:09:34.576Z,24.30
2022-12-07T21:12:01.111Z,27.73
2022-12-07T21:14:27.648Z,23.45
2022-12-07T21:16:54.083Z,17.67
2022-12-07T21:19:20.563Z,24.77
2022-12-07T21:21:47.227Z,24.50
2022-12-07T21:24:13.808Z,22.33
2022-12-07T21:26:40.346Z,29.75
2022-12-07T21:29:07.697Z,25.40
2022-12-07T21:31:35.491Z,29.88
2022-12-07T21:34:13.580Z,29.98
2022-12-07T21:36:40.120Z,29.53
2022-12-07T21:39:07.139Z,25.05
2022-12-07T21:41:37.109Z,30.98
2022-12-07T21:44:06.971Z,35.95
2022-12-07T21:46:35.986Z,35.38
2022-12-07T21:49:11.908Z,32.03
2022-12-07T21:51:42.860Z,39.28
2022-12-07T21:54:11.164Z,38.55
2022-12-07T21:56:40.470Z,41.63
2022-12-07T21:59:12.956Z,37.03
2022-12-07T22:01:40.741Z,42.07
2022-12-07T22:04:08.987Z,51.33
2022-12-07T22:06:38.977Z,42.35
2022-12-07T22:09:06.807Z,38.22
2022-12-07T22:11:34.342Z,40.15
2022-12-07T22:14:05.321Z,36.33
2022-12-07T22:16:40.413Z,34.05
2022-12-07T22:19:07.713Z,33.20
2022-12-07T22:21:35.416Z,33.65
2022-12-07T22:24:03.009Z,29.42
2022-12-07T22:26:29.861Z,29.30
2022-12-07T22:28:56.302Z,29.33
2022-12-07T22:31:23.914Z,26.05
2022-12-07T22:33:51.027Z,24.17
2022-12-07T22:36:18.161Z,24.10
2022-12-07T22:38:45.923Z,25.13
2022-12-07T22:41:22.501Z,23.45
2022-12-07T22:43:48.939Z,24.33
2022-12-07T22:46:15.679Z,23.95
2022-12-07T22:48:42.238Z,24.10
2022-12-07T22:51:23.351Z,27.03
2022-12-07T22:53:51.028Z,24.05
2022-12-07T22:56:17.923Z,27.23
2022-12-07T22:58:45.069Z,26.27
2022-12-07T23:01:13.652Z,30.80
2022-12-07T23:03:40.676Z,27.40
2022-12-07T23:06:14.458Z,23.38
2022-12-07T23:08:41.541Z,28.70
2022-12-07T23:11:10.710Z,29.08
2022-12-07T23:13:37.192Z,29.25
2022-12-07T23:16:15.306Z,31.27
2022-12-07T23:18:42.626Z,30.90
2022-12-07T23:21:09.929Z,31.25
2022-12-07T23:23:36.788Z,29.35
2022-12-07T23:26:05.181Z,31.95
2022-12-07T23:28:32.181Z,34.40
2022-12-07T23:31:07.787Z,32.67
2022-12-07T23:33:34.728Z,27.33
2022-12-07T23:36:16.852Z,28.83
2022-12-07T23:38:45.287Z,25.45
2022-12-07T23:41:14.362Z,25.50
2022-12-07T23:43:41.911Z,24.25
2022-12-07T23:46:10.752Z,22.48
2022-12-07T23:48:38.716Z,24.10
2022-12-07T23:51:06.327Z,23.30
2022-12-07T23:53:40.828Z,19.17
2022-12-07T23:56:11.133Z,19.67
2022-12-07T23:58:37.641Z,14.65
